Time;durP1;ratioP1;P1;durP2;ratioP2;P2;SDS_P1;SDS_P2;PMS_P1;PMS_P2;Temp;Humidity;BMP_temperature;BMP_pressure;BME280_temperature;BME280_humidity;BME280_pressure;Samples;Min_cycle;Max_cycle;Signal;HPM_P1;HPM_P2
2022/09/15 00:00:15;;;;;;;4.17;1.30;;;;;;;17.48;96.08;96638.91;6281720;28;20242;-41
2022/09/15 00:03:18;;;;;;;2.17;1.40;;;;;;;17.46;96.42;96650.81;6282702;28;20225;-41
2022/09/15 00:06:20;;;;;;;1.57;1.13;;;;;;;17.45;96.52;96649.16;6268520;28;20226;-41
2022/09/15 00:09:22;;;;;;;2.40;1.30;;;;;;;17.56;95.74;96646.00;6280799;28;20234;-41
2022/09/15 00:12:25;;;;;;;1.50;1.40;;;;;;;17.66;94.95;96651.84;6279670;28;20238;-41
2022/09/15 00:15:27;;;;;;;2.27;1.30;;;;;;;17.65;94.99;96647.53;6280679;28;20279;-40
2022/09/15 00:18:30;;;;;;;1.90;1.70;;;;;;;17.57;95.46;96653.78;6280246;28;20600;-40
2022/09/15 00:21:34;;;;;;;2.20;1.37;;;;;;;17.52;95.81;96653.53;6259479;28;20236;-41
2022/09/15 00:24:36;;;;;;;2.93;1.50;;;;;;;17.45;96.22;96649.16;6277025;28;20241;-42
2022/09/15 00:27:39;;;;;;;2.83;1.40;;;;;;;17.37;96.59;96647.44;6279130;28;20610;-41
2022/09/15 00:30:47;;;;;;;2.60;1.30;;;;;;;17.32;96.86;96655.19;6280546;28;20241;-41
2022/09/15 00:33:53;;;;;;;2.83;1.30;;;;;;;17.26;97.41;96651.47;6279262;28;20239;-41
2022/09/15 00:36:55;;;;;;;1.43;1.10;;;;;;;17.23;97.82;96662.50;6280624;28;20239;-42
2022/09/15 00:39:57;;;;;;;1.23;1.10;;;;;;;17.20;97.85;96657.53;6269741;28;20241;-41
2022/09/15 00:42:59;;;;;;;4.00;1.50;;;;;;;17.18;98.07;96654.22;6279248;28;20325;-41
2022/09/15 00:46:01;;;;;;;4.40;1.40;;;;;;;17.17;98.52;96660.56;6279382;28;20264;-41
2022/09/15 00:49:13;;;;;;;4.03;1.30;;;;;;;17.18;98.51;96664.91;6279638;28;20238;-41
2022/09/15 00:52:41;;;;;;;2.50;1.47;;;;;;;17.21;98.61;96666.34;6237991;28;20231;-41
2022/09/15 00:55:47;;;;;;;1.43;1.00;;;;;;;17.17;98.94;96662.44;6272463;28;20234;-41
2022/09/15 00:58:56;;;;;;;5.03;1.40;;;;;;;17.14;98.83;96660.16;6278912;28;20701;-42
2022/09/15 01:02:06;;;;;;;3.57;1.23;;;;;;;17.11;99.25;96652.50;6278525;28;20239;-40
2022/09/15 01:05:13;;;;;;;2.80;1.20;;;;;;;17.10;99.47;96643.69;6256176;28;20713;-40
2022/09/15 01:08:41;;;;;;;1.70;1.23;;;;;;;17.08;99.45;96652.88;6265830;28;20227;-41
2022/09/15 01:11:43;;;;;;;2.23;1.17;;;;;;;17.06;99.67;96663.75;6280703;28;20621;-41
2022/09/15 01:14:45;;;;;;;1.43;1.20;;;;;;;17.05;99.52;96670.09;6283119;28;20313;-41
2022/09/15 01:18:08;;;;;;;4.30;1.57;;;;;;;17.03;99.84;96649.97;6278138;28;20218;-41
2022/09/15 01:21:34;;;;;;;1.90;1.20;;;;;;;16.98;99.63;96648.69;6265161;28;20238;-41
2022/09/15 01:24:54;;;;;;;5.03;1.50;;;;;;;16.98;100.00;96642.53;6278733;28;20215;-41
2022/09/15 01:28:43;;;;;;;2.10;1.33;;;;;;;16.95;100.00;96658.91;6278753;28;20234;-41
2022/09/15 01:35:23;;;;;;;2.43;1.10;;;;;;;16.92;100.00;96665.44;6277514;28;20222;-41
2022/09/15 01:38:47;;;;;;;1.77;1.20;;;;;;;16.92;100.00;96653.94;6275452;28;20277;-42
2022/09/15 01:41:55;;;;;;;1.57;1.00;;;;;;;16.91;100.00;96653.13;6256602;28;20616;-41
2022/09/15 01:45:04;;;;;;;3.23;1.57;;;;;;;16.89;100.00;96648.97;6277991;28;20235;-40
2022/09/15 01:48:07;;;;;;;3.37;1.57;;;;;;;16.88;100.00;96648.16;6280468;28;20214;-41
2022/09/15 01:51:10;;;;;;;2.63;1.70;;;;;;;16.87;100.00;96633.19;6261488;28;20223;-42
2022/09/15 01:54:14;;;;;;;4.30;1.43;;;;;;;16.89;100.00;96623.16;6274586;28;20222;-41
2022/09/15 01:57:20;;;;;;;2.13;1.63;;;;;;;16.88;100.00;96629.50;6278454;28;20214;-41
2022/09/15 02:00:22;;;;;;;1.50;1.40;;;;;;;16.84;100.00;96628.25;6261322;28;20594;-40
2022/09/15 02:03:32;;;;;;;1.20;1.03;;;;;;;16.81;100.00;96619.78;6274499;28;20604;-41
2022/09/15 02:06:44;;;;;;;2.80;1.27;;;;;;;16.78;100.00;96612.16;6249326;28;20606;-41
2022/09/15 02:10:00;;;;;;;1.80;1.33;;;;;;;16.75;100.00;96609.91;6277712;28;20252;-41
2022/09/15 02:13:15;;;;;;;1.63;1.20;;;;;;;16.70;100.00;96612.28;6278084;28;20705;-42
2022/09/15 02:16:21;;;;;;;1.47;1.10;;;;;;;16.66;100.00;96614.50;6278568;28;20222;-42
2022/09/15 02:19:39;;;;;;;2.43;1.30;;;;;;;16.64;100.00;96607.72;6283521;28;20242;-41
2022/09/15 02:22:54;;;;;;;1.33;1.10;;;;;;;16.61;100.00;96611.53;6278382;28;20254;-40
2022/09/15 02:26:04;;;;;;;5.73;1.53;;;;;;;16.61;100.00;96600.88;6277691;28;20238;-41
2022/09/15 02:29:11;;;;;;;3.03;1.33;;;;;;;16.55;100.00;96593.66;6280079;28;20265;-41
2022/09/15 02:32:18;;;;;;;4.10;1.60;;;;;;;16.49;100.00;96599.69;6282234;28;20246;-43
2022/09/15 02:35:21;;;;;;;3.03;1.47;;;;;;;16.45;100.00;96609.09;6281896;28;20222;-41
2022/09/15 02:38:27;;;;;;;3.80;1.40;;;;;;;16.45;100.00;96609.91;6279528;28;20242;-41
2022/09/15 02:41:30;;;;;;;2.60;1.13;;;;;;;16.45;100.00;96615.25;6271824;28;20725;-41
2022/09/15 02:44:32;;;;;;;3.50;1.50;;;;;;;16.46;100.00;96610.75;6282802;28;20721;-41
2022/09/15 02:47:34;;;;;;;5.57;1.60;;;;;;;16.43;100.00;96613.78;6281746;28;20230;-41
2022/09/15 02:50:37;;;;;;;2.60;1.20;;;;;;;16.43;100.00;96611.09;6274310;28;20210;-41
2022/09/15 02:53:39;;;;;;;2.60;1.60;;;;;;;16.40;100.00;96616.81;6282553;28;20230;-41
2022/09/15 02:56:42;;;;;;;1.80;1.30;;;;;;;16.39;100.00;96620.47;6287267;28;20230;-41
2022/09/15 03:03:04;;;;;;;3.87;1.23;;;;;;;16.38;100.00;96616.97;6282632;28;20333;-41
2022/09/15 03:06:15;;;;;;;2.33;1.23;;;;;;;16.37;100.00;96614.53;6279459;28;20256;-41
2022/09/15 03:09:17;;;;;;;6.17;1.63;;;;;;;16.32;100.00;96623.06;6283615;28;20218;-43
2022/09/15 03:12:19;;;;;;;1.20;1.10;;;;;;;16.30;100.00;96616.25;6280789;28;20696;-41
2022/09/15 03:15:23;;;;;;;5.57;1.70;;;;;;;16.32;100.00;96620.41;6282102;28;20230;-41
2022/09/15 03:18:25;;;;;;;2.10;1.20;;;;;;;16.32;100.00;96619.56;6281490;28;20230;-41
2022/09/15 03:21:28;;;;;;;3.07;1.10;;;;;;;16.33;100.00;96614.06;6265639;28;20215;-40
2022/09/15 03:24:30;;;;;;;1.50;1.40;;;;;;;16.34;100.00;96612.22;6282589;28;20458;-41
2022/09/15 03:27:33;;;;;;;4.67;1.30;;;;;;;16.34;100.00;96612.22;6280896;28;20233;-41
2022/09/15 03:30:35;;;;;;;2.70;1.50;;;;;;;16.29;100.00;96611.94;6281752;28;20230;-41
2022/09/15 03:33:37;;;;;;;1.30;1.13;;;;;;;16.27;100.00;96617.44;6280977;28;20271;-42
2022/09/15 03:36:40;;;;;;;2.93;1.20;;;;;;;16.26;100.00;96615.81;6281381;28;20658;-40
2022/09/15 03:39:42;;;;;;;3.63;1.20;;;;;;;16.23;100.00;96613.53;6279288;28;20715;-41
2022/09/15 03:42:44;;;;;;;3.03;1.30;;;;;;;16.18;100.00;96626.53;6280935;28;20230;-42
2022/09/15 03:45:46;;;;;;;5.13;1.33;;;;;;;16.16;100.00;96616.09;6278148;28;20711;-42
2022/09/15 03:48:48;;;;;;;2.63;1.40;;;;;;;16.16;100.00;96621.44;6256355;28;20242;-41
2022/09/15 03:51:50;;;;;;;3.63;1.30;;;;;;;16.14;100.00;96614.63;6259045;28;20226;-41
2022/09/15 03:54:52;;;;;;;1.27;1.17;;;;;;;16.12;100.00;96616.63;6279064;28;20702;-41
2022/09/15 03:57:54;;;;;;;3.47;1.40;;;;;;;16.10;100.00;96618.66;6280742;28;20732;-42
2022/09/15 04:00:56;;;;;;;2.03;1.20;;;;;;;16.08;100.00;96625.97;6280226;28;20237;-42
2022/09/15 04:03:58;;;;;;;5.60;1.57;;;;;;;16.06;100.00;96626.19;6276525;28;20237;-41
2022/09/15 04:07:00;;;;;;;2.57;1.40;;;;;;;16.08;100.00;96620.66;6264905;28;20705;-41
2022/09/15 04:10:03;;;;;;;2.73;1.50;;;;;;;16.07;100.00;96619.84;6280081;28;20709;-41
2022/09/15 04:13:05;;;;;;;3.70;1.80;;;;;;;16.04;100.00;96619.41;6279974;28;20368;-41
2022/09/15 04:16:10;;;;;;;4.10;1.47;;;;;;;16.01;100.00;96617.91;6278924;28;20605;-42
2022/09/15 04:19:13;;;;;;;4.73;1.33;;;;;;;15.96;100.00;96630.97;6280325;28;20239;-42
2022/09/15 04:22:15;;;;;;;2.90;1.37;;;;;;;15.95;100.00;96620.50;6276556;28;20332;-41
2022/09/15 04:25:19;;;;;;;2.57;1.30;;;;;;;15.95;100.00;96636.47;6279403;28;20234;-41
2022/09/15 04:28:21;;;;;;;2.80;1.30;;;;;;;15.95;100.00;96636.47;6280693;28;20758;-41
2022/09/15 04:31:23;;;;;;;4.10;1.60;;;;;;;15.92;100.00;96645.63;6279316;28;20230;-42
2022/09/15 04:34:25;;;;;;;2.17;1.20;;;;;;;15.88;100.00;96639.00;6279609;28;20375;-41
2022/09/15 04:37:27;;;;;;;1.60;1.17;;;;;;;15.84;100.00;96633.25;6280624;28;20317;-41
2022/09/15 04:40:29;;;;;;;3.53;1.50;;;;;;;15.81;100.00;96646.06;6260854;28;20238;-41
2022/09/15 04:43:32;;;;;;;6.70;1.40;;;;;;;15.79;100.00;96648.91;6279571;28;20717;-41
2022/09/15 04:46:34;;;;;;;1.70;1.30;;;;;;;15.78;100.00;96638.44;6279561;28;20705;-41
2022/09/15 04:49:36;;;;;;;1.93;1.23;;;;;;;15.77;100.00;96636.81;6275174;28;20253;-41
2022/09/15 04:52:38;;;;;;;4.40;1.20;;;;;;;15.74;100.00;96627.34;6269588;28;20241;-41
2022/09/15 04:55:41;;;;;;;2.43;1.27;;;;;;;15.73;100.00;96620.38;6278286;28;20230;-41
2022/09/15 04:58:46;;;;;;;2.23;1.20;;;;;;;15.71;100.00;96608.25;6262015;28;20630;-41
2022/09/15 05:01:48;;;;;;;1.90;1.20;;;;;;;15.69;100.00;96616.41;6278606;28;20214;-41
2022/09/15 05:04:50;;;;;;;2.40;1.37;;;;;;;15.68;100.00;96619.25;6268931;28;20230;-41
2022/09/15 05:07:52;;;;;;;2.80;1.20;;;;;;;15.68;100.00;96621.91;6278547;28;20240;-41
2022/09/15 05:11:02;;;;;;;3.57;1.40;;;;;;;15.71;100.00;96632.19;6279130;28;20242;-41
2022/09/15 05:14:04;;;;;;;2.43;1.33;;;;;;;15.72;100.00;96626.69;6278153;28;20227;-42
2022/09/15 05:17:06;;;;;;;2.57;1.17;;;;;;;15.73;100.00;96630.19;6279157;28;20234;-41
2022/09/15 05:20:08;;;;;;;3.27;1.33;;;;;;;15.77;100.00;96639.47;6270483;28;20235;-42
2022/09/15 05:23:10;;;;;;;4.63;1.30;;;;;;;15.77;100.00;96648.25;6264778;28;20625;-42
2022/09/15 05:26:15;;;;;;;1.73;1.27;;;;;;;15.79;100.00;96661.38;6278047;28;20230;-41
2022/09/15 05:29:17;;;;;;;1.67;1.37;;;;;;;15.85;100.00;96666.00;6279373;28;20226;-41
2022/09/15 05:32:19;;;;;;;3.80;1.20;;;;;;;15.86;100.00;96665.81;6278223;28;20226;-41
2022/09/15 05:35:22;;;;;;;3.20;1.40;;;;;;;15.85;100.00;96672.13;6278860;28;20796;-41
2022/09/15 05:38:25;;;;;;;3.73;1.37;;;;;;;15.88;100.00;96669.09;6274676;28;20256;-41
2022/09/15 05:41:28;;;;;;;5.93;1.27;;;;;;;15.87;100.00;96669.31;6256236;28;20222;-41
2022/09/15 05:44:30;;;;;;;1.20;1.10;;;;;;;15.91;100.00;96667.09;6279347;28;20731;-42
2022/09/15 05:47:32;;;;;;;1.33;1.07;;;;;;;15.98;100.00;96662.69;6277844;28;20230;-42
2022/09/15 05:50:34;;;;;;;3.13;1.13;;;;;;;16.07;100.00;96653.63;6275201;28;20222;-41
2022/09/15 05:53:37;;;;;;;5.17;1.40;;;;;;;16.18;100.00;96656.66;6277572;28;20237;-41
2022/09/15 05:56:39;;;;;;;2.80;1.23;;;;;;;16.23;100.00;96654.28;6278658;28;20230;-41
2022/09/15 05:59:42;;;;;;;4.13;1.67;;;;;;;16.30;100.00;96669.50;6277396;28;20327;-41
2022/09/15 06:02:44;;;;;;;2.10;1.23;;;;;;;16.34;99.96;96679.63;6278150;28;20234;-41
2022/09/15 06:05:47;;;;;;;2.37;1.00;;;;;;;16.36;100.00;96672.28;6263436;28;20692;-41
2022/09/15 06:08:51;;;;;;;1.57;1.13;;;;;;;16.43;100.00;96675.03;6275981;28;20226;-41
2022/09/15 06:11:58;;;;;;;1.20;1.10;;;;;;;16.51;100.00;96680.25;6282464;28;20256;-42
2022/09/15 06:15:00;;;;;;;3.60;1.20;;;;;;;16.65;99.90;96684.78;6283659;28;20238;-41
2022/09/15 06:18:02;;;;;;;2.87;1.40;;;;;;;16.73;99.74;96674.03;6282423;28;20603;-41
2022/09/15 06:21:08;;;;;;;3.43;1.50;;;;;;;16.82;99.57;96683.56;6272183;28;20721;-40
2022/09/15 06:24:11;;;;;;;1.97;1.33;;;;;;;16.86;99.64;96684.84;6282339;28;20297;-41
2022/09/15 06:27:13;;;;;;;1.30;1.20;;;;;;;16.95;99.72;96693.56;6282280;28;20690;-41
2022/09/15 06:30:16;;;;;;;5.67;1.40;;;;;;;17.07;99.74;96697.38;6282325;28;20218;-41
2022/09/15 06:33:18;;;;;;;4.77;1.43;;;;;;;17.19;99.39;96693.22;6282105;28;20291;-41
2022/09/15 06:36:23;;;;;;;3.53;1.30;;;;;;;17.34;99.25;96703.84;6264448;28;20234;-42
2022/09/15 06:39:25;;;;;;;1.40;1.10;;;;;;;17.42;99.21;96718.91;6270106;28;20230;-42
2022/09/15 06:42:27;;;;;;;1.30;1.20;;;;;;;17.46;99.29;96725.53;6268736;28;20633;-41
2022/09/15 06:45:29;;;;;;;2.93;1.43;;;;;;;17.48;99.30;96728.81;6281782;28;20226;-41
2022/09/15 06:48:31;;;;;;;4.40;1.57;;;;;;;17.50;99.50;96724.09;6263791;28;20222;-42
2022/09/15 06:51:35;;;;;;;3.53;1.30;;;;;;;17.51;99.34;96729.25;6263712;28;20256;-40
2022/09/15 06:54:37;;;;;;;2.93;1.30;;;;;;;17.55;97.94;96735.88;6276064;28;20304;-40
2022/09/15 06:57:39;;;;;;;2.03;1.10;;;;;;;17.76;93.65;96742.28;6280329;28;20760;-41
2022/09/15 07:00:42;;;;;;;2.20;1.10;;;;;;;17.91;90.48;96751.03;6282726;28;20305;-41
2022/09/15 07:03:43;;;;;;;3.17;1.33;;;;;;;18.20;83.09;96742.84;6279788;28;20256;-42
2022/09/15 07:06:46;;;;;;;1.57;1.10;;;;;;;18.49;80.82;96747.16;6269356;28;20253;-41
2022/09/15 07:09:49;;;;;;;5.90;1.20;;;;;;;18.65;79.96;96733.53;6282872;28;20235;-41
2022/09/15 07:12:51;;;;;;;1.67;1.00;;;;;;;18.78;77.97;96720.22;6281355;28;20633;-41
2022/09/15 07:15:57;;;;;;;1.57;1.10;;;;;;;18.77;80.51;96721.25;6279982;28;20230;-41
2022/09/15 07:19:01;;;;;;;1.20;1.00;;;;;;;18.69;82.64;96725.94;6281163;28;20775;-40
2022/09/15 07:22:03;;;;;;;1.67;1.07;;;;;;;18.62;83.74;96717.06;6233109;28;20239;-41
2022/09/15 07:25:05;;;;;;;2.20;1.30;;;;;;;18.56;80.79;96712.47;6278796;28;20238;-40
2022/09/15 07:28:07;;;;;;;1.43;0.87;;;;;;;18.76;79.28;96711.59;6279041;28;20234;-41
2022/09/15 07:31:12;;;;;;;2.67;1.00;;;;;;;18.89;77.02;96708.16;6280898;28;20668;-41
2022/09/15 07:34:14;;;;;;;1.47;1.20;;;;;;;19.03;75.99;96720.56;6280004;28;20250;-40
2022/09/15 07:37:16;;;;;;;1.60;1.17;;;;;;;19.09;76.85;96711.72;6280299;28;20641;-42
2022/09/15 07:40:18;;;;;;;3.10;1.03;;;;;;;19.07;74.72;96721.78;6273169;28;20233;-41
2022/09/15 07:43:20;;;;;;;4.30;1.20;;;;;;;19.20;73.34;96721.03;6280686;28;20600;-40
2022/09/15 07:46:23;;;;;;;3.77;1.20;;;;;;;19.21;74.57;96720.00;6284776;28;20603;-41
2022/09/15 07:49:26;;;;;;;2.83;1.13;;;;;;;19.23;73.68;96715.28;6281807;28;20698;-40
2022/09/15 07:52:28;;;;;;;1.97;0.90;;;;;;;19.17;74.90;96718.75;6279280;28;20226;-40
2022/09/15 07:55:30;;;;;;;1.23;1.00;;;;;;;19.28;71.65;96712.00;6280375;28;20242;-42
2022/09/15 07:58:32;;;;;;;2.87;1.20;;;;;;;19.21;73.87;96728.03;6280042;28;20244;-41
2022/09/15 08:01:53;;;;;;;3.17;0.90;;;;;;;19.22;72.31;96734.22;6263309;28;20681;-41
2022/09/15 08:04:55;;;;;;;1.10;0.70;;;;;;;19.29;71.50;96735.03;6278410;28;20231;-40
2022/09/15 08:07:57;;;;;;;1.17;0.80;;;;;;;19.38;71.24;96737.34;6279151;28;20230;-41
2022/09/15 08:11:04;;;;;;;1.33;1.00;;;;;;;19.38;71.17;96745.38;6280425;28;20226;-40
2022/09/15 08:14:06;;;;;;;2.53;1.30;;;;;;;19.34;73.19;96751.34;6273110;28;20227;-41
2022/09/15 08:17:08;;;;;;;5.23;0.97;;;;;;;19.24;72.03;96757.06;6252260;28;20596;-41
2022/09/15 08:20:12;;;;;;;2.43;1.10;;;;;;;19.25;71.10;96755.22;6255390;28;20261;-40
2022/09/15 08:23:14;;;;;;;1.00;0.80;;;;;;;19.28;70.98;96744.94;6264315;28;20852;-40
2022/09/15 08:26:17;;;;;;;1.30;1.20;;;;;;;19.32;70.88;96743.50;6245541;28;20227;-40
2022/09/15 08:29:19;;;;;;;2.23;1.00;;;;;;;19.26;72.13;96735.47;6257614;28;20226;-40
2022/09/15 08:32:21;;;;;;;3.23;0.97;;;;;;;19.29;70.70;96735.88;6257954;28;20235;-40
2022/09/15 08:35:23;;;;;;;1.67;1.23;;;;;;;19.34;70.57;96736.13;6254680;28;20237;-40
2022/09/15 08:38:26;;;;;;;1.90;0.97;;;;;;;19.44;69.80;96727.69;6255198;28;20225;-40
2022/09/15 08:41:41;;;;;;;1.30;0.97;;;;;;;19.51;70.30;96721.38;6266879;28;20231;-40
2022/09/15 08:44:51;;;;;;;2.67;1.17;;;;;;;19.57;70.15;96716.22;6250983;28;20236;-40
2022/09/15 08:47:58;;;;;;;5.07;1.17;;;;;;;19.51;71.90;96718.69;6257266;28;20373;-42
2022/09/15 08:51:09;;;;;;;3.27;0.90;;;;;;;19.49;69.91;96725.25;6262035;28;20292;-41
2022/09/15 08:54:20;;;;;;;2.40;1.10;;;;;;;19.68;68.82;96719.13;6272708;28;20226;-40
2022/09/15 08:57:24;;;;;;;2.23;0.97;;;;;;;19.85;68.21;96724.94;6276784;28;20272;-41
2022/09/15 09:00:28;;;;;;;1.67;1.00;;;;;;;19.98;66.81;96722.25;6272109;28;20246;-40
2022/09/15 09:03:54;;;;;;;1.60;0.90;;;;;;;20.04;67.47;96720.59;6263927;28;20237;-41
2022/09/15 09:07:12;;;;;;;1.80;1.10;;;;;;;20.06;67.51;96721.22;6263559;28;20907;-43
2022/09/15 09:10:24;;;;;;;3.00;1.20;;;;;;;20.06;67.10;96715.88;6278677;28;20748;-42
2022/09/15 09:13:47;;;;;;;1.73;0.90;;;;;;;20.07;66.36;96710.28;6277763;28;20229;-43
2022/09/15 09:16:49;;;;;;;1.07;0.90;;;;;;;20.06;66.94;96715.88;6280087;28;20594;-40
2022/09/15 09:20:00;;;;;;;1.97;0.87;;;;;;;20.04;66.80;96705.38;6275529;28;20226;-40
2022/09/15 09:23:09;;;;;;;1.60;0.90;;;;;;;20.05;66.17;96698.16;6278906;28;20227;-41
2022/09/15 09:26:13;;;;;;;1.13;0.93;;;;;;;20.07;66.85;96701.44;6279046;28;20754;-41
2022/09/15 09:29:17;;;;;;;3.07;0.87;;;;;;;20.05;67.79;96709.69;6277942;28;20238;-41
2022/09/15 09:32:30;;;;;;;1.40;0.90;;;;;;;20.04;67.18;96710.72;6278789;28;20230;-40
2022/09/15 09:35:44;;;;;;;2.57;1.20;;;;;;;20.11;67.52;96698.16;6277557;28;20816;-41
2022/09/15 09:38:49;;;;;;;1.93;1.20;;;;;;;20.16;67.49;96706.38;6271669;28;20287;-41
2022/09/15 09:41:51;;;;;;;3.87;1.43;;;;;;;20.20;67.23;96685.34;6266831;28;20230;-41
2022/09/15 09:44:53;;;;;;;1.30;0.80;;;;;;;20.30;67.82;96680.41;6274626;28;20241;-41
2022/09/15 09:48:01;;;;;;;1.20;1.10;;;;;;;20.35;68.02;96658.38;6279413;28;20238;-41
2022/09/15 09:51:04;;;;;;;1.17;0.80;;;;;;;20.32;68.67;96656.91;6266357;28;20222;-40
2022/09/15 09:54:14;;;;;;;2.60;1.10;;;;;;;20.28;70.82;96645.75;6277678;28;20218;-41
2022/09/15 09:57:27;;;;;;;1.80;1.10;;;;;;;20.25;71.36;96648.06;6278383;28;20203;-41
2022/09/15 10:00:35;;;;;;;3.13;0.70;;;;;;;20.12;72.96;96659.59;6277844;28;20222;-43
2022/09/15 10:03:37;;;;;;;4.07;0.90;;;;;;;20.04;73.18;96656.31;6276350;28;20608;-41
2022/09/15 10:06:41;;;;;;;3.07;1.00;;;;;;;19.92;71.48;96666.00;6273297;28;20253;-41
2022/09/15 10:09:49;;;;;;;0.80;0.63;;;;;;;19.90;70.14;96660.84;6277906;28;20245;-42
2022/09/15 10:12:55;;;;;;;5.87;1.00;;;;;;;19.93;70.08;96664.97;6276993;28;20252;-41
2022/09/15 10:16:01;;;;;;;1.33;0.77;;;;;;;19.98;70.62;96654.47;6279259;28;21103;-40
2022/09/15 10:19:03;;;;;;;1.20;0.93;;;;;;;20.06;70.31;96664.97;6277903;28;20222;-42
2022/09/15 10:22:05;;;;;;;0.67;0.67;;;;;;;20.13;69.93;96668.47;6258013;28;20745;-41
2022/09/15 10:25:19;;;;;;;3.03;0.87;;;;;;;20.21;70.21;96660.22;6259806;28;20230;-41
2022/09/15 10:28:24;;;;;;;1.43;0.87;;;;;;;20.20;70.56;96669.28;6277240;28;20805;-40
2022/09/15 10:31:30;;;;;;;0.70;0.70;;;;;;;20.12;70.25;96664.97;6277571;28;20709;-42
2022/09/15 10:34:35;;;;;;;3.87;0.93;;;;;;;20.12;70.50;96659.59;6276980;28;20237;-40
2022/09/15 10:38:10;;;;;;;4.53;0.70;;;;;;;20.06;70.24;96667.66;6277758;28;20236;-41
2022/09/15 10:41:29;;;;;;;0.93;0.60;;;;;;;20.07;69.47;96647.84;6267132;28;20610;-41
2022/09/15 10:44:51;;;;;;;1.10;0.90;;;;;;;20.07;72.27;96659.38;6277004;28;20241;-40
2022/09/15 10:48:21;;;;;;;2.00;0.87;;;;;;;19.74;76.56;96663.94;6276904;28;20610;-41
2022/09/15 10:52:04;;;;;;;1.27;0.57;;;;;;;19.46;75.22;96664.94;6278438;28;20708;-41
2022/09/15 10:55:18;;;;;;;2.43;0.90;;;;;;;19.52;73.07;96657.94;6281808;28;20234;-42
2022/09/15 10:58:37;;;;;;;3.80;0.90;;;;;;;19.57;72.35;96660.81;6283291;28;20233;-42
2022/09/15 11:01:50;;;;;;;1.40;0.80;;;;;;;19.62;72.68;96662.91;6282394;28;20709;-40
2022/09/15 11:04:58;;;;;;;0.53;0.53;;;;;;;19.58;72.34;96662.47;6268680;28;20715;-41
2022/09/15 11:08:21;;;;;;;2.07;0.70;;;;;;;19.57;71.98;96651.97;6270363;28;20239;-42
2022/09/15 11:11:52;;;;;;;2.53;0.80;;;;;;;19.58;72.82;96649.09;6280933;28;20229;-40
2022/09/15 11:15:03;;;;;;;1.90;0.80;;;;;;;19.58;73.37;96649.09;6279849;28;20720;-41
2022/09/15 11:18:35;;;;;;;3.27;0.90;;;;;;;19.53;73.16;96654.25;6256041;28;20257;-41
2022/09/15 11:21:56;;;;;;;1.10;0.70;;;;;;;19.46;72.68;96648.03;6272291;28;20226;-40
2022/09/15 11:25:12;;;;;;;0.83;0.67;;;;;;;19.41;72.66;96645.97;6281545;28;20242;-41
2022/09/15 11:28:22;;;;;;;0.43;0.43;;;;;;;19.41;72.88;96642.47;6280974;28;20445;-40
2022/09/15 11:31:33;;;;;;;2.23;0.50;;;;;;;19.35;74.47;96648.63;6263370;28;20235;-41
2022/09/15 11:34:48;;;;;;;0.90;0.70;;;;;;;19.35;74.96;96640.63;6280451;28;20709;-40
2022/09/15 11:37:53;;;;;;;1.30;0.70;;;;;;;19.35;76.09;96629.91;6263049;28;20272;-41
2022/09/15 11:41:09;;;;;;;1.33;0.70;;;;;;;19.35;77.25;96630.75;6257597;28;20235;-43
2022/09/15 11:44:31;;;;;;;1.37;0.60;;;;;;;19.31;78.84;96634.00;6280909;28;20368;-41
2022/09/15 11:47:46;;;;;;;1.73;0.60;;;;;;;19.28;79.66;96639.75;6280067;28;20239;-41
2022/09/15 11:50:53;;;;;;;1.93;0.73;;;;;;;19.18;80.75;96650.84;6266323;28;20796;-41
2022/09/15 11:54:05;;;;;;;1.07;0.80;;;;;;;19.05;81.74;96649.00;6279121;28;20222;-41
2022/09/15 11:57:17;;;;;;;1.10;0.80;;;;;;;18.91;82.39;96652.63;6280172;28;20223;-41
2022/09/15 12:00:19;;;;;;;0.80;0.70;;;;;;;18.79;83.30;96651.53;6280353;28;20223;-41
2022/09/15 12:03:36;;;;;;;0.67;0.67;;;;;;;18.75;83.30;96655.66;6279474;28;20333;-41
2022/09/15 12:06:48;;;;;;;0.70;0.70;;;;;;;18.70;83.65;96653.56;6258331;28;20744;-41
2022/09/15 12:09:50;;;;;;;1.87;0.70;;;;;;;18.63;83.72;96650.06;6279794;28;20838;-42
2022/09/15 12:12:52;;;;;;;1.53;0.70;;;;;;;18.55;83.52;96647.53;6279812;28;20234;-42
2022/09/15 12:15:55;;;;;;;0.57;0.53;;;;;;;18.48;82.65;96637.81;6279725;28;20233;-41
2022/09/15 12:19:07;;;;;;;1.73;0.60;;;;;;;18.46;82.55;96637.19;6279769;28;20244;-41
2022/09/15 12:22:16;;;;;;;0.67;0.67;;;;;;;18.50;82.21;96633.91;6232108;28;20311;-43
2022/09/15 12:25:29;;;;;;;2.17;0.90;;;;;;;18.49;82.34;96624.25;6229974;28;20609;-41
2022/09/15 12:28:49;;;;;;;1.70;0.70;;;;;;;18.46;82.04;96626.50;6275417;28;20241;-41
2022/09/15 12:32:18;;;;;;;2.83;0.87;;;;;;;18.48;82.66;96616.44;6278805;28;20708;-41
2022/09/15 12:35:23;;;;;;;4.00;0.90;;;;;;;18.51;82.74;96605.34;6283795;28;20233;-41
2022/09/15 12:38:29;;;;;;;1.10;0.60;;;;;;;18.59;82.07;96599.84;6275552;28;20608;-41
2022/09/15 12:41:32;;;;;;;0.93;0.80;;;;;;;18.72;82.24;96602.59;6270356;28;20705;-40
2022/09/15 12:44:48;;;;;;;0.90;0.73;;;;;;;18.88;82.70;96590.69;6278454;28;20601;-41
2022/09/15 12:47:56;;;;;;;1.07;0.83;;;;;;;18.97;82.66;96581.47;6278551;28;20732;-41
2022/09/15 12:51:04;;;;;;;0.70;0.53;;;;;;;19.02;82.85;96573.66;6273063;28;20231;-41
2022/09/15 12:54:08;;;;;;;5.20;1.00;;;;;;;19.05;82.87;96571.44;6277675;28;20223;-41
2022/09/15 12:57:31;;;;;;;1.73;1.00;;;;;;;19.06;82.47;96567.72;6279366;28;20213;-43
2022/09/15 13:00:37;;;;;;;1.20;0.73;;;;;;;19.26;82.43;96558.91;6283911;28;20605;-41
2022/09/15 13:03:52;;;;;;;0.63;0.60;;;;;;;19.46;82.55;96551.69;6278704;28;20296;-41
2022/09/15 13:07:31;;;;;;;1.27;0.70;;;;;;;19.57;81.19;96544.91;6261190;28;20218;-41
2022/09/15 13:10:38;;;;;;;1.40;0.90;;;;;;;19.57;81.89;96544.91;6247067;28;20576;-40
2022/09/15 13:13:53;;;;;;;0.90;0.90;;;;;;;19.42;81.98;96547.78;6277604;28;20716;-41
2022/09/15 13:17:04;;;;;;;1.33;0.77;;;;;;;19.32;81.56;96534.00;6278778;28;20241;-41
2022/09/15 13:20:14;;;;;;;1.67;0.70;;;;;;;19.17;78.06;96534.19;6270405;28;20238;-41
2022/09/15 13:23:22;;;;;;;1.00;0.70;;;;;;;19.10;78.96;96530.69;6275185;28;20644;-40
2022/09/15 13:26:26;;;;;;;1.03;0.80;;;;;;;18.98;80.08;96535.81;6277827;28;20226;-40
2022/09/15 13:29:31;;;;;;;2.60;0.93;;;;;;;18.83;80.61;96531.69;6278166;28;20242;-40
2022/09/15 13:32:55;;;;;;;0.80;0.60;;;;;;;18.79;79.31;96531.25;6277023;28;20827;-41
2022/09/15 13:36:23;;;;;;;0.80;0.67;;;;;;;18.86;78.19;96534.78;6278136;28;20231;-41
2022/09/15 13:39:29;;;;;;;0.97;0.87;;;;;;;19.01;77.95;96540.75;6266381;28;20582;-41
2022/09/15 13:42:51;;;;;;;1.60;0.97;;;;;;;19.09;78.70;96534.38;6262189;28;20237;-41
2022/09/15 13:46:11;;;;;;;0.77;0.70;;;;;;;19.19;78.78;96524.09;6277465;28;20533;-40
2022/09/15 13:49:34;;;;;;;3.93;0.83;;;;;;;19.30;80.19;96520.00;6277069;28;20239;-40
2022/09/15 13:52:48;;;;;;;0.93;0.80;;;;;;;19.32;79.67;96523.28;6260663;28;20226;-41
2022/09/15 13:55:54;;;;;;;0.97;0.60;;;;;;;19.58;80.02;96517.94;6278361;28;20701;-41
2022/09/15 13:59:01;;;;;;;0.83;0.70;;;;;;;21.66;71.86;96518.13;6278298;28;20229;-41
2022/09/15 14:02:13;;;;;;;2.07;0.90;;;;;;;22.42;67.18;96514.25;6277861;28;20231;-41
2022/09/15 14:05:17;;;;;;;1.47;0.80;;;;;;;21.81;69.97;96517.78;6263276;28;20258;-41
2022/09/15 14:08:25;;;;;;;1.43;1.13;;;;;;;21.41;70.29;96513.81;6275714;28;20231;-41
2022/09/15 14:11:31;;;;;;;2.57;0.70;;;;;;;21.37;69.35;96518.78;6259868;28;20230;-41
2022/09/15 14:14:43;;;;;;;1.30;0.80;;;;;;;21.70;65.56;96513.97;6260271;28;20603;-41
2022/09/15 14:17:45;;;;;;;2.20;0.80;;;;;;;21.71;63.70;96512.09;6278185;28;20704;-41
2022/09/15 14:21:02;;;;;;;1.10;0.80;;;;;;;21.47;65.42;96523.66;6276003;28;20230;-43
2022/09/15 14:24:20;;;;;;;2.90;0.93;;;;;;;21.23;66.47;96528.00;6277455;28;20235;-41
2022/09/15 14:27:32;;;;;;;1.33;1.00;;;;;;;21.12;67.81;96528.69;6282321;28;20646;-41
2022/09/15 14:30:35;;;;;;;1.20;0.67;;;;;;;21.00;69.35;96526.69;6282008;28;20622;-41
2022/09/15 14:33:39;;;;;;;1.13;0.80;;;;;;;20.98;67.33;96534.13;6282824;28;20248;-41
2022/09/15 14:36:42;;;;;;;2.13;0.97;;;;;;;20.93;69.07;96533.97;6282446;28;20222;-43
2022/09/15 14:39:55;;;;;;;1.77;0.73;;;;;;;20.90;70.00;96536.25;6267577;28;20313;-41
2022/09/15 14:42:57;;;;;;;5.33;1.00;;;;;;;20.72;70.90;96522.75;6279813;28;20234;-41
2022/09/15 14:46:10;;;;;;;1.70;0.70;;;;;;;20.62;69.75;96528.56;6281956;28;20617;-40